sensor_id;sensor_type;location;lat;lon;timestamp;temperature;humidity
40828;DHT22;26549;50.918;5.338;2023-05-19T00:01:31;12.60;98.90
40828;DHT22;26549;50.918;5.338;2023-05-19T00:03:58;12.60;98.90
40828;DHT22;26549;50.918;5.338;2023-05-19T00:06:29;12.60;98.90
40828;DHT22;26549;50.918;5.338;2023-05-19T00:09:00;12.60;99.00
40828;DHT22;26549;50.918;5.338;2023-05-19T00:11:27;12.70;98.90
40828;DHT22;26549;50.918;5.338;2023-05-19T00:13:55;12.70;98.90
40828;DHT22;26549;50.918;5.338;2023-05-19T00:16:23;12.70;99.10
40828;DHT22;26549;50.918;5.338;2023-05-19T00:18:49;12.70;99.00
40828;DHT22;26549;50.918;5.338;2023-05-19T00:21:16;12.70;98.90
40828;DHT22;26549;50.918;5.338;2023-05-19T00:23:42;12.60;98.90
40828;DHT22;26549;50.918;5.338;2023-05-19T00:26:08;12.60;99.30
40828;DHT22;26549;50.918;5.338;2023-05-19T00:28:34;12.50;99.30
40828;DHT22;26549;50.918;5.338;2023-05-19T00:31:00;12.60;99.30
40828;DHT22;26549;50.918;5.338;2023-05-19T00:33:27;12.60;99.30
40828;DHT22;26549;50.918;5.338;2023-05-19T00:35:52;12.60;99.40
40828;DHT22;26549;50.918;5.338;2023-05-19T00:38:18;12.70;99.40
40828;DHT22;26549;50.918;5.338;2023-05-19T00:40:44;12.70;99.40
40828;DHT22;26549;50.918;5.338;2023-05-19T00:43:11;12.60;99.50
40828;DHT22;26549;50.918;5.338;2023-05-19T00:45:37;12.50;99.60
40828;DHT22;26549;50.918;5.338;2023-05-19T00:48:03;12.50;99.90
40828;DHT22;26549;50.918;5.338;2023-05-19T00:50:29;12.50;99.90
40828;DHT22;26549;50.918;5.338;2023-05-19T00:52:55;12.40;99.90
40828;DHT22;26549;50.918;5.338;2023-05-19T00:55:26;12.20;99.90
40828;DHT22;26549;50.918;5.338;2023-05-19T00:57:54;12.20;99.90
40828;DHT22;26549;50.918;5.338;2023-05-19T01:00:21;12.20;99.90
40828;DHT22;26549;50.918;5.338;2023-05-19T01:02:47;12.20;99.90
40828;DHT22;26549;50.918;5.338;2023-05-19T01:05:15;12.20;99.90
40828;DHT22;26549;50.918;5.338;2023-05-19T01:07:41;12.10;99.90
40828;DHT22;26549;50.918;5.338;2023-05-19T01:10:08;12.00;99.90
40828;DHT22;26549;50.918;5.338;2023-05-19T01:12:35;12.00;99.90
40828;DHT22;26549;50.918;5.338;2023-05-19T01:15:02;12.00;99.90
40828;DHT22;26549;50.918;5.338;2023-05-19T01:17:44;12.00;99.90
40828;DHT22;26549;50.918;5.338;2023-05-19T01:20:26;12.10;99.90
40828;DHT22;26549;50.918;5.338;2023-05-19T01:23:16;12.10;99.90
40828;DHT22;26549;50.918;5.338;2023-05-19T01:26:08;12.10;99.90
40828;DHT22;26549;50.918;5.338;2023-05-19T01:31:03;12.10;99.90
40828;DHT22;26549;50.918;5.338;2023-05-19T01:33:31;12.10;99.90
40828;DHT22;26549;50.918;5.338;2023-05-19T01:35:59;12.10;99.90
40828;DHT22;26549;50.918;5.338;2023-05-19T01:38:28;11.90;99.90
40828;DHT22;26549;50.918;5.338;2023-05-19T01:40:55;12.00;99.90
40828;DHT22;26549;50.918;5.338;2023-05-19T01:43:24;11.80;99.90
40828;DHT22;26549;50.918;5.338;2023-05-19T01:45:50;11.70;99.90
40828;DHT22;26549;50.918;5.338;2023-05-19T01:48:17;11.70;99.90
40828;DHT22;26549;50.918;5.338;2023-05-19T01:50:43;11.70;99.90
40828;DHT22;26549;50.918;5.338;2023-05-19T01:53:10;11.70;99.90
40828;DHT22;26549;50.918;5.338;2023-05-19T01:55:42;11.80;99.90
40828;DHT22;26549;50.918;5.338;2023-05-19T02:01:19;11.60;99.90
40828;DHT22;26549;50.918;5.338;2023-05-19T02:07:08;11.60;99.90
40828;DHT22;26549;50.918;5.338;2023-05-19T02:09:51;11.70;99.90
40828;DHT22;26549;50.918;5.338;2023-05-19T02:12:27;11.70;99.90
40828;DHT22;26549;50.918;5.338;2023-05-19T02:15:24;11.60;99.90
40828;DHT22;26549;50.918;5.338;2023-05-19T02:17:54;11.50;99.90
40828;DHT22;26549;50.918;5.338;2023-05-19T02:20:22;11.50;99.90
40828;DHT22;26549;50.918;5.338;2023-05-19T02:22:48;11.50;99.90
40828;DHT22;26549;50.918;5.338;2023-05-19T02:25:14;11.60;99.90
40828;DHT22;26549;50.918;5.338;2023-05-19T02:27:40;11.70;99.90
40828;DHT22;26549;50.918;5.338;2023-05-19T02:30:07;11.70;99.90
40828;DHT22;26549;50.918;5.338;2023-05-19T02:32:34;11.70;99.90
40828;DHT22;26549;50.918;5.338;2023-05-19T02:35:01;11.50;99.90
40828;DHT22;26549;50.918;5.338;2023-05-19T02:37:27;11.40;99.90
40828;DHT22;26549;50.918;5.338;2023-05-19T02:39:55;11.40;99.90
40828;DHT22;26549;50.918;5.338;2023-05-19T02:42:21;11.10;99.90
40828;DHT22;26549;50.918;5.338;2023-05-19T02:44:48;11.00;99.90
40828;DHT22;26549;50.918;5.338;2023-05-19T02:47:14;11.00;99.90
40828;DHT22;26549;50.918;5.338;2023-05-19T02:49:40;11.10;99.90
40828;DHT22;26549;50.918;5.338;2023-05-19T02:52:07;11.20;99.90
40828;DHT22;26549;50.918;5.338;2023-05-19T02:54:33;11.20;99.90
40828;DHT22;26549;50.918;5.338;2023-05-19T02:57:00;11.10;99.90
40828;DHT22;26549;50.918;5.338;2023-05-19T02:59:26;10.90;99.90
40828;DHT22;26549;50.918;5.338;2023-05-19T03:01:55;10.80;99.90
40828;DHT22;26549;50.918;5.338;2023-05-19T03:04:21;10.80;99.90
40828;DHT22;26549;50.918;5.338;2023-05-19T03:06:48;10.80;99.90
40828;DHT22;26549;50.918;5.338;2023-05-19T03:09:14;10.90;99.90
40828;DHT22;26549;50.918;5.338;2023-05-19T03:11:40;10.90;99.90
40828;DHT22;26549;50.918;5.338;2023-05-19T03:14:06;11.00;99.90
40828;DHT22;26549;50.918;5.338;2023-05-19T03:16:34;11.00;99.90
40828;DHT22;26549;50.918;5.338;2023-05-19T03:19:00;11.10;99.90
40828;DHT22;26549;50.918;5.338;2023-05-19T03:21:27;11.00;99.90
40828;DHT22;26549;50.918;5.338;2023-05-19T03:23:54;11.10;99.90
40828;DHT22;26549;50.918;5.338;2023-05-19T03:26:19;11.00;99.90
40828;DHT22;26549;50.918;5.338;2023-05-19T03:28:48;11.00;99.90
40828;DHT22;26549;50.918;5.338;2023-05-19T03:31:14;11.00;99.90
40828;DHT22;26549;50.918;5.338;2023-05-19T03:33:40;10.90;99.90
40828;DHT22;26549;50.918;5.338;2023-05-19T03:36:06;10.90;99.90
40828;DHT22;26549;50.918;5.338;2023-05-19T03:38:32;10.90;99.90
40828;DHT22;26549;50.918;5.338;2023-05-19T03:40:58;10.90;99.90
40828;DHT22;26549;50.918;5.338;2023-05-19T03:43:24;10.90;99.90
40828;DHT22;26549;50.918;5.338;2023-05-19T03:45:50;10.90;99.90
40828;DHT22;26549;50.918;5.338;2023-05-19T03:48:16;10.90;99.90
40828;DHT22;26549;50.918;5.338;2023-05-19T03:50:43;10.90;99.90
40828;DHT22;26549;50.918;5.338;2023-05-19T03:53:09;10.90;99.90
40828;DHT22;26549;50.918;5.338;2023-05-19T03:55:35;10.90;99.90
40828;DHT22;26549;50.918;5.338;2023-05-19T03:58:02;10.80;99.90
40828;DHT22;26549;50.918;5.338;2023-05-19T04:00:28;10.80;99.90
40828;DHT22;26549;50.918;5.338;2023-05-19T04:02:54;11.00;99.90
40828;DHT22;26549;50.918;5.338;2023-05-19T04:05:20;10.80;99.90
40828;DHT22;26549;50.918;5.338;2023-05-19T04:07:46;10.80;99.90
40828;DHT22;26549;50.918;5.338;2023-05-19T04:10:12;10.80;99.90
40828;DHT22;26549;50.918;5.338;2023-05-19T04:12:38;10.70;99.90
40828;DHT22;26549;50.918;5.338;2023-05-19T04:15:04;10.80;99.90
40828;DHT22;26549;50.918;5.338;2023-05-19T04:17:35;10.60;99.90
40828;DHT22;26549;50.918;5.338;2023-05-19T04:20:02;10.60;99.90
40828;DHT22;26549;50.918;5.338;2023-05-19T04:22:30;10.80;99.90
40828;DHT22;26549;50.918;5.338;2023-05-19T04:24:56;10.80;99.90
40828;DHT22;26549;50.918;5.338;2023-05-19T04:27:23;10.80;99.90
40828;DHT22;26549;50.918;5.338;2023-05-19T04:29:48;10.90;99.90
40828;DHT22;26549;50.918;5.338;2023-05-19T04:32:15;10.90;99.90
40828;DHT22;26549;50.918;5.338;2023-05-19T04:34:44;11.00;99.90
40828;DHT22;26549;50.918;5.338;2023-05-19T04:37:14;11.10;99.90
40828;DHT22;26549;50.918;5.338;2023-05-19T04:39:41;11.20;99.90
40828;DHT22;26549;50.918;5.338;2023-05-19T04:42:08;11.10;99.90
40828;DHT22;26549;50.918;5.338;2023-05-19T04:44:36;11.10;99.90
40828;DHT22;26549;50.918;5.338;2023-05-19T04:47:07;11.10;99.90
40828;DHT22;26549;50.918;5.338;2023-05-19T04:49:34;11.10;99.90
40828;DHT22;26549;50.918;5.338;2023-05-19T04:52:08;11.20;99.90
40828;DHT22;26549;50.918;5.338;2023-05-19T04:54:38;11.20;99.90
40828;DHT22;26549;50.918;5.338;2023-05-19T04:57:05;11.20;99.90
40828;DHT22;26549;50.918;5.338;2023-05-19T04:59:31;11.30;99.90
40828;DHT22;26549;50.918;5.338;2023-05-19T05:01:56;11.40;99.90
40828;DHT22;26549;50.918;5.338;2023-05-19T05:04:22;11.40;99.90
40828;DHT22;26549;50.918;5.338;2023-05-19T05:06:49;11.30;99.90
40828;DHT22;26549;50.918;5.338;2023-05-19T05:09:15;11.30;99.90
40828;DHT22;26549;50.918;5.338;2023-05-19T05:11:41;11.20;99.90
40828;DHT22;26549;50.918;5.338;2023-05-19T05:14:08;11.40;99.90
40828;DHT22;26549;50.918;5.338;2023-05-19T05:16:34;11.40;99.90
40828;DHT22;26549;50.918;5.338;2023-05-19T05:19:01;11.50;99.90
40828;DHT22;26549;50.918;5.338;2023-05-19T05:21:28;11.50;99.90
40828;DHT22;26549;50.918;5.338;2023-05-19T05:23:55;11.50;99.90
40828;DHT22;26549;50.918;5.338;2023-05-19T05:26:21;11.70;99.90
40828;DHT22;26549;50.918;5.338;2023-05-19T05:28:50;11.90;99.90
40828;DHT22;26549;50.918;5.338;2023-05-19T05:31:19;11.90;99.90
40828;DHT22;26549;50.918;5.338;2023-05-19T05:33:45;12.10;99.90
40828;DHT22;26549;50.918;5.338;2023-05-19T05:36:11;12.40;99.90
40828;DHT22;26549;50.918;5.338;2023-05-19T05:38:38;12.70;99.90
40828;DHT22;26549;50.918;5.338;2023-05-19T05:41:04;13.00;99.90
40828;DHT22;26549;50.918;5.338;2023-05-19T05:43:30;13.00;99.90
40828;DHT22;26549;50.918;5.338;2023-05-19T05:45:56;12.90;99.90
40828;DHT22;26549;50.918;5.338;2023-05-19T05:48:22;13.00;99.90
40828;DHT22;26549;50.918;5.338;2023-05-19T05:50:49;12.90;99.90
40828;DHT22;26549;50.918;5.338;2023-05-19T05:53:18;12.80;99.90
40828;DHT22;26549;50.918;5.338;2023-05-19T05:55:47;12.70;99.90
40828;DHT22;26549;50.918;5.338;2023-05-19T05:58:14;12.70;99.90
40828;DHT22;26549;50.918;5.338;2023-05-19T06:00:42;12.80;99.90
40828;DHT22;26549;50.918;5.338;2023-05-19T06:03:08;12.60;99.90
40828;DHT22;26549;50.918;5.338;2023-05-19T06:05:35;12.70;99.90
40828;DHT22;26549;50.918;5.338;2023-05-19T06:08:02;12.80;99.90
40828;DHT22;26549;50.918;5.338;2023-05-19T06:10:28;12.90;99.90
40828;DHT22;26549;50.918;5.338;2023-05-19T06:12:54;12.90;99.90
40828;DHT22;26549;50.918;5.338;2023-05-19T06:15:20;13.00;99.90
40828;DHT22;26549;50.918;5.338;2023-05-19T06:17:46;13.20;99.90
40828;DHT22;26549;50.918;5.338;2023-05-19T06:20:16;12.90;99.90
40828;DHT22;26549;50.918;5.338;2023-05-19T06:22:42;13.00;99.90
40828;DHT22;26549;50.918;5.338;2023-05-19T06:25:08;13.00;99.90
40828;DHT22;26549;50.918;5.338;2023-05-19T06:27:34;13.20;99.90
40828;DHT22;26549;50.918;5.338;2023-05-19T06:30:00;13.30;99.90
40828;DHT22;26549;50.918;5.338;2023-05-19T06:32:26;13.60;99.90
40828;DHT22;26549;50.918;5.338;2023-05-19T06:34:54;13.70;99.90
40828;DHT22;26549;50.918;5.338;2023-05-19T06:37:22;14.00;99.90
40828;DHT22;26549;50.918;5.338;2023-05-19T06:39:54;14.30;99.90
40828;DHT22;26549;50.918;5.338;2023-05-19T06:42:20;14.40;99.90
40828;DHT22;26549;50.918;5.338;2023-05-19T06:44:51;14.50;99.90
40828;DHT22;26549;50.918;5.338;2023-05-19T06:47:18;14.50;99.90
40828;DHT22;26549;50.918;5.338;2023-05-19T06:49:44;14.60;99.90
40828;DHT22;26549;50.918;5.338;2023-05-19T06:52:10;14.80;99.90
40828;DHT22;26549;50.918;5.338;2023-05-19T06:54:36;14.80;99.90
40828;DHT22;26549;50.918;5.338;2023-05-19T06:57:02;14.60;99.90
40828;DHT22;26549;50.918;5.338;2023-05-19T06:59:28;14.40;99.90
40828;DHT22;26549;50.918;5.338;2023-05-19T07:01:54;14.40;99.90
40828;DHT22;26549;50.918;5.338;2023-05-19T07:04:20;14.60;99.90
40828;DHT22;26549;50.918;5.338;2023-05-19T07:06:46;14.80;99.90
40828;DHT22;26549;50.918;5.338;2023-05-19T07:09:13;14.80;99.90
40828;DHT22;26549;50.918;5.338;2023-05-19T07:11:38;15.00;99.60
40828;DHT22;26549;50.918;5.338;2023-05-19T07:14:04;15.20;99.80
40828;DHT22;26549;50.918;5.338;2023-05-19T07:16:30;15.30;99.20
40828;DHT22;26549;50.918;5.338;2023-05-19T07:18:56;15.30;98.90
40828;DHT22;26549;50.918;5.338;2023-05-19T07:21:22;15.50;99.80
40828;DHT22;26549;50.918;5.338;2023-05-19T07:23:47;15.60;98.60
40828;DHT22;26549;50.918;5.338;2023-05-19T07:26:13;15.70;98.30
40828;DHT22;26549;50.918;5.338;2023-05-19T07:28:39;15.80;98.80
40828;DHT22;26549;50.918;5.338;2023-05-19T07:31:07;15.90;98.50
40828;DHT22;26549;50.918;5.338;2023-05-19T07:33:33;15.90;98.90
40828;DHT22;26549;50.918;5.338;2023-05-19T07:35:59;16.10;98.10
40828;DHT22;26549;50.918;5.338;2023-05-19T07:38:26;16.20;98.20
40828;DHT22;26549;50.918;5.338;2023-05-19T07:40:53;16.40;97.50
40828;DHT22;26549;50.918;5.338;2023-05-19T07:43:19;16.30;97.10
40828;DHT22;26549;50.918;5.338;2023-05-19T07:45:45;16.40;97.40
40828;DHT22;26549;50.918;5.338;2023-05-19T07:48:11;16.30;96.80
40828;DHT22;26549;50.918;5.338;2023-05-19T07:50:39;16.20;97.10
40828;DHT22;26549;50.918;5.338;2023-05-19T07:53:05;16.30;97.40
40828;DHT22;26549;50.918;5.338;2023-05-19T07:55:31;16.30;96.60
40828;DHT22;26549;50.918;5.338;2023-05-19T07:57:57;16.40;96.50
40828;DHT22;26549;50.918;5.338;2023-05-19T08:00:23;16.40;96.90
40828;DHT22;26549;50.918;5.338;2023-05-19T08:02:48;16.50;96.10
40828;DHT22;26549;50.918;5.338;2023-05-19T08:05:14;16.60;96.80
40828;DHT22;26549;50.918;5.338;2023-05-19T08:07:40;16.60;96.50
40828;DHT22;26549;50.918;5.338;2023-05-19T08:10:06;16.40;95.40
40828;DHT22;26549;50.918;5.338;2023-05-19T08:12:32;16.20;94.90
40828;DHT22;26549;50.918;5.338;2023-05-19T08:14:58;16.40;95.10
40828;DHT22;26549;50.918;5.338;2023-05-19T08:17:23;16.50;94.50
40828;DHT22;26549;50.918;5.338;2023-05-19T08:19:49;16.60;94.60
40828;DHT22;26549;50.918;5.338;2023-05-19T08:22:15;16.70;95.80
40828;DHT22;26549;50.918;5.338;2023-05-19T08:24:41;17.00;95.10
40828;DHT22;26549;50.918;5.338;2023-05-19T08:27:07;17.20;94.30
40828;DHT22;26549;50.918;5.338;2023-05-19T08:29:33;17.10;94.40
40828;DHT22;26549;50.918;5.338;2023-05-19T08:31:59;17.00;94.00
40828;DHT22;26549;50.918;5.338;2023-05-19T08:34:27;17.10;95.60
40828;DHT22;26549;50.918;5.338;2023-05-19T08:36:53;17.00;94.50
40828;DHT22;26549;50.918;5.338;2023-05-19T08:39:22;17.00;94.20
40828;DHT22;26549;50.918;5.338;2023-05-19T08:41:52;17.00;94.30
40828;DHT22;26549;50.918;5.338;2023-05-19T08:44:18;16.80;94.90
40828;DHT22;26549;50.918;5.338;2023-05-19T08:46:46;16.60;93.00
40828;DHT22;26549;50.918;5.338;2023-05-19T08:49:12;16.70;93.80
40828;DHT22;26549;50.918;5.338;2023-05-19T08:54:14;17.20;93.80
40828;DHT22;26549;50.918;5.338;2023-05-19T08:56:42;17.30;94.20
40828;DHT22;26549;50.918;5.338;2023-05-19T08:59:10;17.60;92.60
40828;DHT22;26549;50.918;5.338;2023-05-19T09:01:36;17.60;93.10
40828;DHT22;26549;50.918;5.338;2023-05-19T09:04:03;17.50;91.80
40828;DHT22;26549;50.918;5.338;2023-05-19T09:06:29;17.40;92.30
40828;DHT22;26549;50.918;5.338;2023-05-19T09:08:57;17.50;91.90
40828;DHT22;26549;50.918;5.338;2023-05-19T09:11:23;17.30;91.00
40828;DHT22;26549;50.918;5.338;2023-05-19T09:13:49;17.00;90.90
40828;DHT22;26549;50.918;5.338;2023-05-19T09:16:15;16.60;92.10
40828;DHT22;26549;50.918;5.338;2023-05-19T09:18:54;16.60;93.00
40828;DHT22;26549;50.918;5.338;2023-05-19T09:21:30;16.90;92.70
40828;DHT22;26549;50.918;5.338;2023-05-19T09:23:56;17.10;91.20
40828;DHT22;26549;50.918;5.338;2023-05-19T09:26:24;17.30;91.20
40828;DHT22;26549;50.918;5.338;2023-05-19T09:28:49;17.50;91.90
40828;DHT22;26549;50.918;5.338;2023-05-19T09:31:17;17.50;90.70
40828;DHT22;26549;50.918;5.338;2023-05-19T09:33:44;17.60;92.90
40828;DHT22;26549;50.918;5.338;2023-05-19T09:36:10;17.60;90.90
40828;DHT22;26549;50.918;5.338;2023-05-19T09:38:37;17.70;91.00
40828;DHT22;26549;50.918;5.338;2023-05-19T09:41:04;17.80;91.70
40828;DHT22;26549;50.918;5.338;2023-05-19T09:43:32;18.10;91.50
40828;DHT22;26549;50.918;5.338;2023-05-19T09:45:59;18.30;91.20
40828;DHT22;26549;50.918;5.338;2023-05-19T09:48:28;18.30;90.90
40828;DHT22;26549;50.918;5.338;2023-05-19T09:50:54;18.00;90.00
40828;DHT22;26549;50.918;5.338;2023-05-19T09:53:23;17.80;90.20
40828;DHT22;26549;50.918;5.338;2023-05-19T09:55:53;17.80;91.20
40828;DHT22;26549;50.918;5.338;2023-05-19T09:58:21;18.10;89.90
40828;DHT22;26549;50.918;5.338;2023-05-19T10:00:47;17.80;90.20
40828;DHT22;26549;50.918;5.338;2023-05-19T10:03:15;17.90;90.00
40828;DHT22;26549;50.918;5.338;2023-05-19T10:05:43;17.90;91.00
40828;DHT22;26549;50.918;5.338;2023-05-19T10:08:11;18.30;90.90
40828;DHT22;26549;50.918;5.338;2023-05-19T10:10:37;18.50;90.90
40828;DHT22;26549;50.918;5.338;2023-05-19T10:13:04;18.60;88.40
40828;DHT22;26549;50.918;5.338;2023-05-19T10:15:30;18.80;89.80
40828;DHT22;26549;50.918;5.338;2023-05-19T10:17:58;19.00;88.10
40828;DHT22;26549;50.918;5.338;2023-05-19T10:20:25;19.00;90.40
40828;DHT22;26549;50.918;5.338;2023-05-19T10:22:51;19.00;88.40
40828;DHT22;26549;50.918;5.338;2023-05-19T10:25:17;18.80;89.60
40828;DHT22;26549;50.918;5.338;2023-05-19T10:28:15;18.80;88.20
40828;DHT22;26549;50.918;5.338;2023-05-19T10:30:46;18.90;90.60
40828;DHT22;26549;50.918;5.338;2023-05-19T10:33:16;19.00;87.40
40828;DHT22;26549;50.918;5.338;2023-05-19T10:38:40;19.20;89.60
40828;DHT22;26549;50.918;5.338;2023-05-19T10:46:56;19.40;87.60
40828;DHT22;26549;50.918;5.338;2023-05-19T10:49:22;19.30;88.80
40828;DHT22;26549;50.918;5.338;2023-05-19T10:51:48;19.30;90.30
40828;DHT22;26549;50.918;5.338;2023-05-19T10:54:14;19.10;87.60
40828;DHT22;26549;50.918;5.338;2023-05-19T10:56:45;19.10;88.40
40828;DHT22;26549;50.918;5.338;2023-05-19T10:59:34;19.10;87.90
40828;DHT22;26549;50.918;5.338;2023-05-19T11:02:07;19.00;90.50
40828;DHT22;26549;50.918;5.338;2023-05-19T11:04:47;19.40;90.10
40828;DHT22;26549;50.918;5.338;2023-05-19T11:07:19;19.40;90.20
40828;DHT22;26549;50.918;5.338;2023-05-19T11:09:52;19.50;90.20
40828;DHT22;26549;50.918;5.338;2023-05-19T11:12:22;19.70;89.30
40828;DHT22;26549;50.918;5.338;2023-05-19T11:14:56;19.90;87.30
40828;DHT22;26549;50.918;5.338;2023-05-19T11:17:46;20.00;88.50
40828;DHT22;26549;50.918;5.338;2023-05-19T11:20:25;19.90;88.70
40828;DHT22;26549;50.918;5.338;2023-05-19T11:23:05;19.80;86.90
40828;DHT22;26549;50.918;5.338;2023-05-19T11:25:41;19.60;87.40
40828;DHT22;26549;50.918;5.338;2023-05-19T11:28:09;19.50;89.40
40828;DHT22;26549;50.918;5.338;2023-05-19T11:30:37;19.50;89.50
40828;DHT22;26549;50.918;5.338;2023-05-19T11:33:03;19.80;87.80
40828;DHT22;26549;50.918;5.338;2023-05-19T11:35:32;19.80;84.90
40828;DHT22;26549;50.918;5.338;2023-05-19T11:37:58;19.80;86.30
40828;DHT22;26549;50.918;5.338;2023-05-19T11:40:24;19.80;84.30
40828;DHT22;26549;50.918;5.338;2023-05-19T11:42:51;19.70;86.10
40828;DHT22;26549;50.918;5.338;2023-05-19T11:45:26;19.80;85.30
40828;DHT22;26549;50.918;5.338;2023-05-19T11:47:54;19.70;86.30
40828;DHT22;26549;50.918;5.338;2023-05-19T11:50:21;19.90;87.10
40828;DHT22;26549;50.918;5.338;2023-05-19T11:52:47;19.90;86.60
40828;DHT22;26549;50.918;5.338;2023-05-19T11:55:15;19.90;87.20
40828;DHT22;26549;50.918;5.338;2023-05-19T11:57:56;20.00;86.00
40828;DHT22;26549;50.918;5.338;2023-05-19T12:00:27;20.00;85.20
40828;DHT22;26549;50.918;5.338;2023-05-19T12:02:53;20.20;89.50
40828;DHT22;26549;50.918;5.338;2023-05-19T12:05:23;20.20;84.90
40828;DHT22;26549;50.918;5.338;2023-05-19T12:07:49;20.10;86.50
40828;DHT22;26549;50.918;5.338;2023-05-19T12:10:28;20.00;83.60
40828;DHT22;26549;50.918;5.338;2023-05-19T12:12:55;19.90;85.30
40828;DHT22;26549;50.918;5.338;2023-05-19T12:15:31;20.10;85.50
40828;DHT22;26549;50.918;5.338;2023-05-19T12:18:00;20.20;85.30
40828;DHT22;26549;50.918;5.338;2023-05-19T12:20:30;20.40;86.10
40828;DHT22;26549;50.918;5.338;2023-05-19T12:23:00;20.50;89.20
40828;DHT22;26549;50.918;5.338;2023-05-19T12:25:27;20.70;85.00
40828;DHT22;26549;50.918;5.338;2023-05-19T12:27:58;20.70;86.20
40828;DHT22;26549;50.918;5.338;2023-05-19T12:30:28;20.60;83.90
40828;DHT22;26549;50.918;5.338;2023-05-19T12:32:57;20.80;85.50
40828;DHT22;26549;50.918;5.338;2023-05-19T12:35:30;20.60;82.40
40828;DHT22;26549;50.918;5.338;2023-05-19T12:38:08;20.10;82.10
40828;DHT22;26549;50.918;5.338;2023-05-19T12:40:34;19.70;83.70
40828;DHT22;26549;50.918;5.338;2023-05-19T12:43:04;19.80;83.20
40828;DHT22;26549;50.918;5.338;2023-05-19T12:45:39;19.90;83.90
40828;DHT22;26549;50.918;5.338;2023-05-19T12:48:13;20.00;83.30
40828;DHT22;26549;50.918;5.338;2023-05-19T12:50:43;20.20;86.10
40828;DHT22;26549;50.918;5.338;2023-05-19T12:53:12;20.20;81.00
40828;DHT22;26549;50.918;5.338;2023-05-19T12:55:42;20.20;83.20
40828;DHT22;26549;50.918;5.338;2023-05-19T12:58:11;20.20;83.20
40828;DHT22;26549;50.918;5.338;2023-05-19T13:00:41;20.20;83.10
40828;DHT22;26549;50.918;5.338;2023-05-19T13:03:19;20.30;81.00
40828;DHT22;26549;50.918;5.338;2023-05-19T13:05:47;20.10;81.00
40828;DHT22;26549;50.918;5.338;2023-05-19T13:08:15;20.50;82.40
40828;DHT22;26549;50.918;5.338;2023-05-19T13:10:42;20.70;81.50
40828;DHT22;26549;50.918;5.338;2023-05-19T13:13:09;20.60;81.40
40828;DHT22;26549;50.918;5.338;2023-05-19T13:15:40;20.50;79.90
40828;DHT22;26549;50.918;5.338;2023-05-19T13:18:08;20.30;83.50
40828;DHT22;26549;50.918;5.338;2023-05-19T13:20:35;20.30;80.90
40828;DHT22;26549;50.918;5.338;2023-05-19T13:23:01;20.30;79.60
40828;DHT22;26549;50.918;5.338;2023-05-19T13:25:27;20.40;84.60
40828;DHT22;26549;50.918;5.338;2023-05-19T13:27:53;20.50;81.80
40828;DHT22;26549;50.918;5.338;2023-05-19T13:30:23;20.60;82.20
40828;DHT22;26549;50.918;5.338;2023-05-19T13:33:00;20.70;80.60
40828;DHT22;26549;50.918;5.338;2023-05-19T13:35:31;20.70;78.70
40828;DHT22;26549;50.918;5.338;2023-05-19T13:38:10;20.50;79.10
40828;DHT22;26549;50.918;5.338;2023-05-19T13:40:39;20.50;81.70
40828;DHT22;26549;50.918;5.338;2023-05-19T13:43:07;20.70;81.70
40828;DHT22;26549;50.918;5.338;2023-05-19T13:45:37;20.70;82.20
40828;DHT22;26549;50.918;5.338;2023-05-19T13:48:03;20.80;82.30
40828;DHT22;26549;50.918;5.338;2023-05-19T13:50:33;20.80;80.00
40828;DHT22;26549;50.918;5.338;2023-05-19T13:53:16;20.80;81.00
40828;DHT22;26549;50.918;5.338;2023-05-19T13:55:52;20.60;78.60
40828;DHT22;26549;50.918;5.338;2023-05-19T13:58:19;20.60;78.80
40828;DHT22;26549;50.918;5.338;2023-05-19T14:00:45;20.50;79.80
40828;DHT22;26549;50.918;5.338;2023-05-19T14:03:11;20.60;80.20
40828;DHT22;26549;50.918;5.338;2023-05-19T14:05:49;20.60;80.00
40828;DHT22;26549;50.918;5.338;2023-05-19T14:08:20;20.70;79.30
40828;DHT22;26549;50.918;5.338;2023-05-19T14:10:49;20.80;78.90
40828;DHT22;26549;50.918;5.338;2023-05-19T14:13:15;20.70;79.70
40828;DHT22;26549;50.918;5.338;2023-05-19T14:15:41;20.40;80.50
40828;DHT22;26549;50.918;5.338;2023-05-19T14:18:07;20.50;81.50
40828;DHT22;26549;50.918;5.338;2023-05-19T14:20:38;20.70;81.10
40828;DHT22;26549;50.918;5.338;2023-05-19T14:23:03;20.80;84.30
40828;DHT22;26549;50.918;5.338;2023-05-19T14:25:29;20.90;82.90
40828;DHT22;26549;50.918;5.338;2023-05-19T14:28:05;20.80;80.20
40828;DHT22;26549;50.918;5.338;2023-05-19T14:30:31;20.60;81.30
40828;DHT22;26549;50.918;5.338;2023-05-19T14:33:00;20.60;81.50
40828;DHT22;26549;50.918;5.338;2023-05-19T14:35:28;20.60;83.60
40828;DHT22;26549;50.918;5.338;2023-05-19T14:37:54;20.70;80.80
40828;DHT22;26549;50.918;5.338;2023-05-19T14:40:20;20.50;79.90
40828;DHT22;26549;50.918;5.338;2023-05-19T14:42:51;20.50;80.90
40828;DHT22;26549;50.918;5.338;2023-05-19T14:45:17;20.70;81.90
40828;DHT22;26549;50.918;5.338;2023-05-19T14:47:50;20.50;79.70
40828;DHT22;26549;50.918;5.338;2023-05-19T14:50:19;20.40;81.00
40828;DHT22;26549;50.918;5.338;2023-05-19T14:52:46;20.50;81.60
40828;DHT22;26549;50.918;5.338;2023-05-19T14:55:12;20.40;81.60
40828;DHT22;26549;50.918;5.338;2023-05-19T14:57:37;20.50;80.60
40828;DHT22;26549;50.918;5.338;2023-05-19T15:00:03;20.60;79.70
40828;DHT22;26549;50.918;5.338;2023-05-19T15:02:29;20.80;80.20
40828;DHT22;26549;50.918;5.338;2023-05-19T15:04:55;20.90;80.90
40828;DHT22;26549;50.918;5.338;2023-05-19T15:07:21;21.00;80.50
40828;DHT22;26549;50.918;5.338;2023-05-19T15:09:50;21.10;78.60
40828;DHT22;26549;50.918;5.338;2023-05-19T15:12:19;21.00;79.40
40828;DHT22;26549;50.918;5.338;2023-05-19T15:14:45;21.20;80.50
40828;DHT22;26549;50.918;5.338;2023-05-19T15:17:44;21.20;79.90
40828;DHT22;26549;50.918;5.338;2023-05-19T15:20:19;20.60;79.90
40828;DHT22;26549;50.918;5.338;2023-05-19T15:22:56;20.60;79.60
40828;DHT22;26549;50.918;5.338;2023-05-19T15:25:27;20.60;78.80
40828;DHT22;26549;50.918;5.338;2023-05-19T15:27:56;20.80;78.80
40828;DHT22;26549;50.918;5.338;2023-05-19T15:30:24;20.80;79.10
40828;DHT22;26549;50.918;5.338;2023-05-19T15:32:50;20.90;81.10
40828;DHT22;26549;50.918;5.338;2023-05-19T15:35:16;20.80;79.10
40828;DHT22;26549;50.918;5.338;2023-05-19T15:37:42;20.90;80.20
40828;DHT22;26549;50.918;5.338;2023-05-19T15:40:08;21.10;81.70
40828;DHT22;26549;50.918;5.338;2023-05-19T15:42:34;21.30;78.70
40828;DHT22;26549;50.918;5.338;2023-05-19T15:44:59;21.50;79.50
40828;DHT22;26549;50.918;5.338;2023-05-19T15:47:25;21.50;79.80
40828;DHT22;26549;50.918;5.338;2023-05-19T15:49:52;21.50;77.70
40828;DHT22;26549;50.918;5.338;2023-05-19T15:52:18;21.40;77.60
40828;DHT22;26549;50.918;5.338;2023-05-19T15:54:43;21.50;78.90
40828;DHT22;26549;50.918;5.338;2023-05-19T15:57:09;21.30;78.20